createdAt,value
2018-12-05T00:00:16.813Z,0
2018-12-05T00:01:29.026Z,0
2018-12-05T00:02:41.185Z,0
2018-12-05T00:03:53.369Z,0
2018-12-05T00:05:05.617Z,0
2018-12-05T00:06:17.805Z,0
2018-12-05T00:07:30.079Z,0
2018-12-05T00:08:42.291Z,0
2018-12-05T00:09:54.425Z,0
2018-12-05T00:11:06.641Z,0
2018-12-05T00:12:18.840Z,0
2018-12-05T00:13:31.043Z,0
2018-12-05T00:14:43.329Z,0
2018-12-05T00:15:55.484Z,0
2018-12-05T00:17:07.791Z,0
2018-12-05T00:18:19.949Z,0
2018-12-05T00:19:32.168Z,0
2018-12-05T00:20:47.936Z,0
2018-12-05T00:21:56.539Z,0
2018-12-05T00:23:08.820Z,0
2018-12-05T00:24:21.013Z,0
2018-12-05T00:25:33.218Z,0
2018-12-05T00:26:45.381Z,0
2018-12-05T00:27:57.581Z,0
2018-12-05T00:29:09.808Z,0
2018-12-05T00:30:22.010Z,0
2018-12-05T00:31:34.310Z,0
2018-12-05T00:32:46.500Z,0
2018-12-05T00:33:58.863Z,0
2018-12-05T00:35:10.845Z,0
2018-12-05T00:36:23.055Z,0
2018-12-05T00:37:35.356Z,0
2018-12-05T00:38:47.632Z,0
2018-12-05T00:39:59.684Z,0
2018-12-05T00:41:11.906Z,0
2018-12-05T00:42:24.203Z,0
2018-12-05T00:43:36.390Z,0
2018-12-05T00:44:48.598Z,0
2018-12-05T00:46:00.835Z,0
2018-12-05T00:47:13.034Z,0
2018-12-05T00:48:25.215Z,0
2018-12-05T00:49:37.350Z,0
2018-12-05T00:50:49.642Z,0
2018-12-05T00:52:01.799Z,0
2018-12-05T00:53:14.039Z,0
2018-12-05T00:54:26.223Z,0
2018-12-05T00:55:38.456Z,0
2018-12-05T00:56:50.673Z,0
2018-12-05T00:58:02.891Z,0
2018-12-05T00:59:15.192Z,0
2018-12-05T01:00:28.612Z,0
2018-12-05T01:01:39.530Z,0
2018-12-05T01:02:51.744Z,0
2018-12-05T01:04:04.027Z,0
2018-12-05T01:05:16.171Z,0
2018-12-05T01:06:28.442Z,0
2018-12-05T01:07:40.601Z,0
2018-12-05T01:08:52.946Z,0
2018-12-05T01:10:05.024Z,0
2018-12-05T01:11:17.234Z,0
2018-12-05T01:12:29.450Z,0
2018-12-05T01:13:41.702Z,0
2018-12-05T01:14:53.876Z,0
2018-12-05T01:16:06.111Z,0
2018-12-05T01:17:18.307Z,0
2018-12-05T01:18:30.513Z,0
2018-12-05T01:19:42.860Z,0
2018-12-05T01:20:55.034Z,0
2018-12-05T01:22:07.223Z,0
2018-12-05T01:23:19.373Z,0
2018-12-05T01:24:31.692Z,0
2018-12-05T01:25:43.797Z,0
2018-12-05T01:26:56.010Z,0
2018-12-05T01:28:08.310Z,0
2018-12-05T01:29:20.446Z,0
2018-12-05T01:30:32.743Z,0
2018-12-05T01:31:44.882Z,0
2018-12-05T01:32:57.090Z,0
2018-12-05T01:34:09.334Z,0
2018-12-05T01:35:21.526Z,0
2018-12-05T01:36:33.830Z,0
2018-12-05T01:37:45.946Z,0
2018-12-05T01:38:58.240Z,0
2018-12-05T01:40:10.378Z,0
2018-12-05T01:41:22.587Z,0
2018-12-05T01:42:35.007Z,0
2018-12-05T01:43:47.008Z,0
2018-12-05T01:44:59.268Z,0
2018-12-05T01:46:11.398Z,0
2018-12-05T01:47:23.681Z,0
2018-12-05T01:48:35.844Z,0
2018-12-05T01:49:48.118Z,0
2018-12-05T01:51:00.304Z,0
2018-12-05T01:52:12.442Z,0
2018-12-05T01:53:24.719Z,0
2018-12-05T01:54:36.948Z,0
2018-12-05T01:55:49.150Z,0
2018-12-05T01:57:01.354Z,0
2018-12-05T01:58:13.613Z,0
2018-12-05T01:59:25.823Z,0
2018-12-05T02:00:37.997Z,0
2018-12-05T02:01:50.273Z,0
2018-12-05T02:03:02.421Z,0
2018-12-05T02:04:14.629Z,0
2018-12-05T02:05:26.951Z,0
2018-12-05T02:06:39.074Z,0
2018-12-05T02:07:51.269Z,0
2018-12-05T02:09:03.514Z,0
2018-12-05T02:10:15.686Z,0
2018-12-05T02:11:27.984Z,0
2018-12-05T02:12:40.032Z,0
2018-12-05T02:13:52.298Z,0
2018-12-05T02:15:04.472Z,0
2018-12-05T02:16:16.801Z,0
2018-12-05T02:17:28.988Z,0
2018-12-05T02:18:41.170Z,0
2018-12-05T02:19:53.463Z,0
2018-12-05T02:21:05.553Z,0
2018-12-05T02:22:17.747Z,0
2018-12-05T02:23:30.173Z,0
2018-12-05T02:24:42.216Z,0
2018-12-05T02:25:54.362Z,0
2018-12-05T02:27:06.749Z,0
2018-12-05T02:28:18.862Z,0
2018-12-05T02:29:31.045Z,0
2018-12-05T02:30:43.546Z,0
2018-12-05T02:31:55.489Z,0
2018-12-05T02:33:07.702Z,0
2018-12-05T02:34:20.081Z,0
2018-12-05T02:35:32.048Z,0
2018-12-05T02:36:44.400Z,0
2018-12-05T02:37:56.498Z,0
2018-12-05T02:39:08.858Z,0
2018-12-05T02:40:20.955Z,0
2018-12-05T02:41:35.303Z,0
2018-12-05T02:42:45.458Z,0
2018-12-05T02:43:57.601Z,0
2018-12-05T02:45:09.861Z,0
2018-12-05T02:46:22.011Z,0
2018-12-05T02:47:34.288Z,0
2018-12-05T02:48:46.510Z,0
2018-12-05T02:49:58.636Z,0
2018-12-05T02:51:10.902Z,0
2018-12-05T02:52:23.065Z,0
2018-12-05T02:53:35.282Z,0
2018-12-05T02:54:47.575Z,0
2018-12-05T02:55:59.779Z,0
2018-12-05T02:57:11.919Z,0
2018-12-05T02:58:27.013Z,0
2018-12-05T02:59:36.436Z,0
2018-12-05T03:00:50.343Z,0
2018-12-05T03:02:00.910Z,0
2018-12-05T03:03:12.987Z,0
2018-12-05T03:04:25.203Z,0
2018-12-05T03:05:37.490Z,0
2018-12-05T03:06:49.641Z,0
2018-12-05T03:08:01.897Z,0
2018-12-05T03:09:14.126Z,0
2018-12-05T03:10:26.353Z,0
2018-12-05T03:11:38.924Z,0
2018-12-05T03:12:50.719Z,0
2018-12-05T03:14:03.001Z,0
2018-12-05T03:15:15.147Z,0
2018-12-05T03:16:27.444Z,0
2018-12-05T03:17:39.664Z,0
2018-12-05T03:18:51.889Z,0
2018-12-05T03:20:04.081Z,0
2018-12-05T03:21:16.208Z,0
2018-12-05T03:22:30.502Z,0
2018-12-05T03:23:40.740Z,0
2018-12-05T03:24:52.819Z,0
2018-12-05T03:26:05.181Z,0
2018-12-05T03:27:17.243Z,0
2018-12-05T03:28:29.443Z,0
2018-12-05T03:29:42.154Z,0
2018-12-05T03:30:53.945Z,0
2018-12-05T03:32:06.077Z,0
2018-12-05T03:33:18.293Z,0
2018-12-05T03:34:30.570Z,0
2018-12-05T03:35:42.782Z,0
2018-12-05T03:36:54.991Z,0
2018-12-05T03:38:07.139Z,0
2018-12-05T03:39:19.440Z,0
2018-12-05T03:40:31.648Z,0
2018-12-05T03:41:43.929Z,0
2018-12-05T03:42:56.095Z,0
2018-12-05T03:44:08.333Z,0
2018-12-05T03:45:20.458Z,0
2018-12-05T03:46:32.763Z,0
2018-12-05T03:47:44.964Z,0
2018-12-05T03:48:57.192Z,0
2018-12-05T03:50:09.407Z,0
2018-12-05T03:51:21.545Z,0
2018-12-05T03:52:33.787Z,0
2018-12-05T03:53:46.008Z,0
2018-12-05T03:54:58.191Z,0
2018-12-05T03:56:10.477Z,0
2018-12-05T03:57:22.649Z,0
2018-12-05T03:58:34.870Z,0
2018-12-05T03:59:49.889Z,0
2018-12-05T04:00:59.257Z,0
2018-12-05T04:02:11.480Z,0
2018-12-05T04:03:23.701Z,0
2018-12-05T04:04:36.004Z,0
2018-12-05T04:05:48.129Z,0
2018-12-05T04:07:00.450Z,0
2018-12-05T04:08:12.608Z,0
2018-12-05T04:09:24.806Z,0
2018-12-05T04:10:36.962Z,0
2018-12-05T04:11:49.238Z,0
2018-12-05T04:13:01.388Z,0
2018-12-05T04:14:13.722Z,0
2018-12-05T04:15:25.803Z,0
2018-12-05T04:16:38.002Z,0
2018-12-05T04:17:50.236Z,0
2018-12-05T04:19:02.430Z,0
2018-12-05T04:20:14.696Z,0
2018-12-05T04:21:26.857Z,0
2018-12-05T04:22:39.112Z,0
2018-12-05T04:23:51.263Z,0
2018-12-05T04:25:03.540Z,0
2018-12-05T04:26:15.779Z,0
2018-12-05T04:27:27.889Z,0
2018-12-05T04:28:40.191Z,0
2018-12-05T04:29:52.307Z,0
2018-12-05T04:31:04.528Z,0
2018-12-05T04:32:16.808Z,0
2018-12-05T04:33:28.949Z,0
2018-12-05T04:34:41.244Z,0
2018-12-05T04:35:53.365Z,0
2018-12-05T04:37:05.671Z,0
2018-12-05T04:38:17.863Z,0
2018-12-05T04:39:29.993Z,0
2018-12-05T04:40:42.284Z,0
2018-12-05T04:41:54.425Z,0
2018-12-05T04:43:06.607Z,0
2018-12-05T04:44:18.804Z,0
2018-12-05T04:45:31.398Z,0
2018-12-05T04:46:43.228Z,0
2018-12-05T04:47:55.468Z,0
2018-12-05T04:49:07.647Z,0
2018-12-05T04:50:19.915Z,0
2018-12-05T04:51:32.164Z,0
2018-12-05T04:52:44.287Z,0
2018-12-05T04:53:56.464Z,0
2018-12-05T04:55:08.769Z,0
2018-12-05T04:56:20.924Z,0
2018-12-05T04:57:33.162Z,0
2018-12-05T04:58:45.436Z,0
2018-12-05T04:59:57.516Z,0
2018-12-05T05:01:09.730Z,0
2018-12-05T05:02:21.945Z,0
2018-12-05T05:03:34.179Z,0
2018-12-05T05:04:46.368Z,0
2018-12-05T05:05:58.575Z,0
2018-12-05T05:07:10.780Z,0
2018-12-05T05:08:23.088Z,0
2018-12-05T05:09:35.221Z,0
2018-12-05T05:10:47.506Z,0
2018-12-05T05:11:59.644Z,0
2018-12-05T05:13:11.877Z,0
2018-12-05T05:14:24.051Z,0
2018-12-05T05:15:36.268Z,0
2018-12-05T05:16:48.484Z,0
2018-12-05T05:18:00.777Z,0
2018-12-05T05:19:12.908Z,0
2018-12-05T05:20:25.113Z,0
2018-12-05T05:21:37.333Z,0
2018-12-05T05:22:49.619Z,0
2018-12-05T05:24:01.784Z,0
2018-12-05T05:25:13.970Z,0
2018-12-05T05:26:26.267Z,0
2018-12-05T05:27:38.501Z,0
2018-12-05T05:28:50.685Z,0
2018-12-05T05:30:05.031Z,0
2018-12-05T05:31:15.139Z,0
2018-12-05T05:32:27.281Z,0
2018-12-05T05:33:39.564Z,0
2018-12-05T05:34:51.792Z,0
2018-12-05T05:36:03.936Z,0
2018-12-05T05:37:16.233Z,0
2018-12-05T05:38:28.457Z,0
2018-12-05T05:39:40.669Z,0
2018-12-05T05:40:52.875Z,0
2018-12-05T05:42:05.008Z,0
2018-12-05T05:43:17.229Z,0
2018-12-05T05:44:29.435Z,0
2018-12-05T05:45:41.704Z,0
2018-12-05T05:46:53.851Z,0
2018-12-05T05:48:06.085Z,0
2018-12-05T05:49:18.355Z,0
2018-12-05T05:50:30.588Z,0
2018-12-05T05:51:42.824Z,0
2018-12-05T05:52:55.042Z,0
2018-12-05T05:54:07.717Z,0
2018-12-05T05:55:19.462Z,0
2018-12-05T05:56:31.662Z,0
2018-12-05T05:57:43.881Z,0
2018-12-05T05:58:56.034Z,0
2018-12-05T06:00:08.243Z,0
2018-12-05T06:01:20.517Z,0
2018-12-05T06:02:32.746Z,0
2018-12-05T06:03:44.981Z,0
2018-12-05T06:04:57.100Z,0
2018-12-05T06:06:09.339Z,0
2018-12-05T06:07:21.552Z,0
2018-12-05T06:08:33.865Z,0
2018-12-05T06:09:46.029Z,0
2018-12-05T06:10:58.299Z,0
2018-12-05T06:12:10.638Z,0
2018-12-05T06:13:22.652Z,0
2018-12-05T06:14:34.983Z,0
2018-12-05T06:15:47.172Z,0
2018-12-05T06:16:59.395Z,0
2018-12-05T06:18:11.571Z,0
2018-12-05T06:19:23.755Z,0
2018-12-05T06:20:36.061Z,0
2018-12-05T06:21:48.175Z,0
2018-12-05T06:23:00.393Z,0
2018-12-05T06:24:12.702Z,0
2018-12-05T06:25:24.858Z,0
2018-12-05T06:26:37.119Z,0
2018-12-05T06:27:49.268Z,0
2018-12-05T06:29:01.485Z,0
2018-12-05T06:30:13.789Z,0
2018-12-05T06:31:25.949Z,0
2018-12-05T06:32:38.147Z,0
2018-12-05T06:33:50.365Z,0
2018-12-05T06:35:02.589Z,0
2018-12-05T06:36:14.894Z,0
2018-12-05T06:37:27.002Z,4
2018-12-05T06:38:39.221Z,4
2018-12-05T06:39:51.510Z,0
2018-12-05T06:41:03.652Z,4
2018-12-05T06:42:15.989Z,4
2018-12-05T06:43:28.096Z,4
2018-12-05T06:44:40.360Z,4
2018-12-05T06:45:52.622Z,4
2018-12-05T06:47:04.955Z,4
2018-12-05T06:48:17.026Z,8
2018-12-05T06:49:29.233Z,12
2018-12-05T06:50:41.465Z,8
2018-12-05T06:51:53.753Z,16
2018-12-05T06:53:05.978Z,16
2018-12-05T06:54:18.193Z,16
2018-12-05T06:55:30.412Z,24
2018-12-05T06:56:42.636Z,28
2018-12-05T06:57:54.795Z,32
2018-12-05T06:59:07.082Z,40
2018-12-05T07:00:19.230Z,44
2018-12-05T07:01:31.435Z,56
2018-12-05T07:02:43.673Z,68
2018-12-05T07:03:55.912Z,80
2018-12-05T07:05:08.209Z,96
2018-12-05T07:06:20.345Z,112
2018-12-05T07:07:32.672Z,128
2018-12-05T07:08:44.798Z,144
2018-12-05T07:09:57.012Z,164
2018-12-05T07:11:09.238Z,184
2018-12-05T07:12:21.449Z,212
2018-12-05T07:13:33.823Z,248
2018-12-05T07:14:45.988Z,280
2018-12-05T07:15:58.180Z,316
2018-12-05T07:17:10.414Z,348
2018-12-05T07:18:22.750Z,376
2018-12-05T07:19:34.806Z,400
2018-12-05T07:20:47.042Z,428
2018-12-05T07:21:59.344Z,452
2018-12-05T07:23:11.551Z,484
2018-12-05T07:24:23.808Z,516
2018-12-05T07:25:35.973Z,560
2018-12-05T07:26:48.118Z,612
2018-12-05T07:28:00.426Z,664
2018-12-05T07:29:12.571Z,724
2018-12-05T07:30:24.993Z,792
2018-12-05T07:31:37.091Z,860
2018-12-05T07:32:49.223Z,920
2018-12-05T07:34:01.494Z,972
2018-12-05T07:35:13.705Z,1020
2018-12-05T07:36:25.923Z,1072
2018-12-05T07:37:38.128Z,1132
2018-12-05T07:38:50.275Z,1192
2018-12-05T07:40:02.555Z,1260
2018-12-05T07:41:14.718Z,1328
2018-12-05T07:42:27.098Z,1400
2018-12-05T07:43:39.150Z,1452
2018-12-05T07:44:51.414Z,1508
2018-12-05T07:46:05.039Z,1576
2018-12-05T07:47:15.759Z,1648
2018-12-05T07:48:28.074Z,1704
2018-12-05T07:49:40.231Z,1776
2018-12-05T07:50:52.399Z,1828
2018-12-05T07:52:04.753Z,1872
2018-12-05T07:53:16.895Z,1912
2018-12-05T07:54:29.107Z,1972
2018-12-05T07:55:41.312Z,2044
2018-12-05T07:56:53.550Z,2152
2018-12-05T07:58:05.775Z,2272
2018-12-05T07:59:17.983Z,2400
2018-12-05T08:00:32.641Z,2536
2018-12-05T08:01:42.317Z,2664
2018-12-05T08:02:54.605Z,2772
2018-12-05T08:04:06.767Z,2888
2018-12-05T08:05:18.963Z,2992
2018-12-05T08:06:31.238Z,3100
2018-12-05T08:07:43.376Z,3212
2018-12-05T08:08:55.705Z,3356
2018-12-05T08:10:07.928Z,3484
2018-12-05T08:11:20.002Z,3632
2018-12-05T08:12:32.307Z,3764
2018-12-05T08:13:44.459Z,3908
2018-12-05T08:14:56.622Z,4076
2018-12-05T08:16:08.830Z,4164
2018-12-05T08:17:21.050Z,4188
2018-12-05T08:18:33.334Z,4232
2018-12-05T08:19:45.552Z,4412
2018-12-05T08:20:57.726Z,4632
2018-12-05T08:22:09.965Z,4836
2018-12-05T08:23:22.178Z,4896
2018-12-05T08:24:34.325Z,4944
2018-12-05T08:25:46.534Z,4984
2018-12-05T08:26:58.836Z,5068
2018-12-05T08:28:10.970Z,5268
2018-12-05T08:29:23.368Z,5416
2018-12-05T08:30:35.410Z,5500
2018-12-05T08:31:47.731Z,5772
2018-12-05T08:32:59.926Z,5832
2018-12-05T08:34:12.115Z,5688
2018-12-05T08:35:24.309Z,5520
2018-12-05T08:36:36.450Z,5336
2018-12-05T08:37:48.653Z,5336
2018-12-05T08:39:00.868Z,5396
2018-12-05T08:40:13.164Z,5660
2018-12-05T08:41:25.313Z,5768
2018-12-05T08:42:37.617Z,5808
2018-12-05T08:43:49.716Z,5900
2018-12-05T08:45:02.143Z,6016
2018-12-05T08:46:14.141Z,6072
2018-12-05T08:47:26.429Z,6100
2018-12-05T08:48:38.648Z,6196
2018-12-05T08:49:50.797Z,6316
2018-12-05T08:51:03.019Z,6552
2018-12-05T08:52:15.235Z,6856
2018-12-05T08:53:27.490Z,7108
2018-12-05T08:54:39.667Z,7340
2018-12-05T08:55:51.941Z,7556
2018-12-05T08:57:04.058Z,7624
2018-12-05T08:58:16.324Z,7536
2018-12-05T08:59:28.571Z,7404
2018-12-05T09:00:40.836Z,7244
2018-12-05T09:01:53.041Z,7244
2018-12-05T09:03:05.073Z,7512
2018-12-05T09:04:17.361Z,7664
2018-12-05T09:05:29.566Z,7776
2018-12-05T09:06:41.735Z,7748
2018-12-05T09:07:53.955Z,7680
2018-12-05T09:09:06.185Z,7672
2018-12-05T09:10:18.290Z,7640
2018-12-05T09:11:30.504Z,7544
2018-12-05T09:12:42.713Z,7484
2018-12-05T09:13:57.181Z,7284
2018-12-05T09:15:07.151Z,7108
2018-12-05T09:16:19.334Z,7236
2018-12-05T09:17:31.546Z,7592
2018-12-05T09:18:43.841Z,8084
2018-12-05T09:19:56.050Z,8448
2018-12-05T09:21:08.319Z,8568
2018-12-05T09:22:20.409Z,8576
2018-12-05T09:23:32.625Z,8704
2018-12-05T09:24:44.916Z,8936
2018-12-05T09:25:57.059Z,9188
2018-12-05T09:27:09.280Z,9400
2018-12-05T09:28:21.490Z,9472
2018-12-05T09:29:34.725Z,9508
2018-12-05T09:30:46.071Z,9448
2018-12-05T09:31:58.164Z,9264
2018-12-05T09:33:10.545Z,9140
2018-12-05T09:34:22.697Z,8936
2018-12-05T09:35:34.883Z,8816
2018-12-05T09:36:47.260Z,8732
2018-12-05T09:37:59.254Z,8652
2018-12-05T09:39:11.471Z,8640
2018-12-05T09:40:23.767Z,8596
2018-12-05T09:41:35.931Z,8592
2018-12-05T09:42:48.140Z,8496
2018-12-05T09:44:00.447Z,8472
2018-12-05T09:45:12.744Z,8516
2018-12-05T09:46:24.931Z,8556
2018-12-05T09:47:37.048Z,8664
2018-12-05T09:48:49.362Z,8804
2018-12-05T09:50:01.548Z,8992
2018-12-05T09:51:13.699Z,9144
2018-12-05T09:52:25.930Z,9328
2018-12-05T09:53:38.191Z,9484
2018-12-05T09:54:50.432Z,9532
2018-12-05T09:56:02.629Z,9612
2018-12-05T09:57:14.775Z,9704
2018-12-05T09:58:27.059Z,9712
2018-12-05T09:59:39.333Z,9860
2018-12-05T10:00:53.288Z,9864
2018-12-05T10:02:03.700Z,9996
2018-12-05T10:03:15.929Z,9700
2018-12-05T10:04:28.985Z,9268
2018-12-05T10:05:40.414Z,8868
2018-12-05T10:06:52.616Z,8804
2018-12-05T10:08:04.842Z,8692
2018-12-05T10:09:17.043Z,8628
2018-12-05T10:10:29.346Z,8640
2018-12-05T10:11:41.487Z,8820
2018-12-05T10:12:53.707Z,9000
2018-12-05T10:14:06.018Z,9112
2018-12-05T10:15:18.237Z,9164
2018-12-05T10:16:30.404Z,9208
2018-12-05T10:17:42.620Z,9004
2018-12-05T10:18:54.833Z,8916
2018-12-05T10:20:07.141Z,8856
2018-12-05T10:21:19.298Z,8776
2018-12-05T10:22:31.603Z,8756
2018-12-05T10:23:43.833Z,8840
2018-12-05T10:24:56.038Z,8960
2018-12-05T10:26:08.296Z,9220
2018-12-05T10:27:20.519Z,9428
2018-12-05T10:28:32.663Z,9548
2018-12-05T10:29:44.900Z,9788
2018-12-05T10:30:57.209Z,9924
2018-12-05T10:32:09.361Z,10300
2018-12-05T10:33:21.729Z,9840
2018-12-05T10:34:33.830Z,9484
2018-12-05T10:35:46.104Z,9272
2018-12-05T10:36:58.373Z,9072
2018-12-05T10:38:10.570Z,8972
2018-12-05T10:39:22.788Z,9160
2018-12-05T10:40:35.014Z,9384
2018-12-05T10:41:47.163Z,9600
2018-12-05T10:42:59.472Z,9848
2018-12-05T10:44:11.833Z,10032
2018-12-05T10:45:23.834Z,10216
2018-12-05T10:46:36.073Z,10284
2018-12-05T10:47:48.269Z,10336
2018-12-05T10:49:00.592Z,10400
2018-12-05T10:50:12.782Z,10556
2018-12-05T10:51:24.926Z,10680
2018-12-05T10:52:37.161Z,10652
2018-12-05T10:53:49.376Z,10600
2018-12-05T10:55:01.630Z,10448
2018-12-05T10:56:13.908Z,10320
2018-12-05T10:57:26.062Z,10204
2018-12-05T10:58:38.360Z,10068
2018-12-05T10:59:50.485Z,10004
2018-12-05T11:01:02.772Z,10012
2018-12-05T11:02:14.995Z,10044
2018-12-05T11:03:27.145Z,10092
2018-12-05T11:04:39.374Z,10108
2018-12-05T11:05:51.595Z,10164
2018-12-05T11:07:03.903Z,10192
2018-12-05T11:08:16.143Z,10188
2018-12-05T11:09:28.277Z,10216
2018-12-05T11:10:40.586Z,10216
2018-12-05T11:11:52.728Z,10144
2018-12-05T11:13:04.955Z,10052
2018-12-05T11:14:17.165Z,9828
2018-12-05T11:15:29.478Z,9720
2018-12-05T11:16:41.614Z,9728
2018-12-05T11:17:53.934Z,9864
2018-12-05T11:19:06.114Z,10116
2018-12-05T11:20:18.323Z,10360
2018-12-05T11:21:30.590Z,10612
2018-12-05T11:22:42.721Z,10784
2018-12-05T11:23:54.954Z,10868
2018-12-05T11:25:07.148Z,10864
2018-12-05T11:26:21.823Z,10940
2018-12-05T11:27:31.676Z,10916
2018-12-05T11:28:43.882Z,11004
2018-12-05T11:29:56.046Z,11068
2018-12-05T11:31:08.346Z,10888
2018-12-05T11:32:20.543Z,10580
2018-12-05T11:33:32.690Z,10452
2018-12-05T11:34:44.922Z,10384
2018-12-05T11:35:57.213Z,10360
2018-12-05T11:37:09.361Z,10304
2018-12-05T11:38:21.657Z,10240
2018-12-05T11:39:33.878Z,10088
2018-12-05T11:40:46.024Z,10072
2018-12-05T11:41:58.265Z,10120
2018-12-05T11:43:10.589Z,10200
2018-12-05T11:44:22.682Z,10300
2018-12-05T11:45:34.912Z,10316
2018-12-05T11:46:47.152Z,10288
2018-12-05T11:47:59.377Z,10232
2018-12-05T11:49:11.661Z,10084
2018-12-05T11:50:23.882Z,10020
2018-12-05T11:51:36.048Z,9956
2018-12-05T11:52:48.309Z,9960
2018-12-05T11:54:00.509Z,9956
2018-12-05T11:55:12.690Z,9896
2018-12-05T11:57:37.256Z,9376
2018-12-05T11:58:49.363Z,8968
2018-12-05T12:00:01.593Z,8560
2018-12-05T12:01:13.886Z,8228
2018-12-05T12:02:26.051Z,8084
2018-12-05T12:03:38.278Z,7988
2018-12-05T12:04:50.544Z,7884
2018-12-05T12:06:02.839Z,7720
2018-12-05T12:07:14.968Z,7628
2018-12-05T12:08:27.181Z,7656
2018-12-05T12:09:39.410Z,7688
2018-12-05T12:10:51.744Z,7680
2018-12-05T12:12:03.927Z,7672
2018-12-05T12:13:16.170Z,7560
2018-12-05T12:14:28.294Z,7420
2018-12-05T12:15:40.570Z,7284
2018-12-05T12:16:52.924Z,7196
2018-12-05T12:18:04.966Z,7204
2018-12-05T12:19:17.187Z,7232
2018-12-05T12:20:29.453Z,7380
2018-12-05T12:21:41.699Z,7516
2018-12-05T12:22:53.962Z,7540
2018-12-05T12:24:06.106Z,7596
2018-12-05T12:25:18.420Z,7492
2018-12-05T12:26:30.600Z,7368
2018-12-05T12:27:42.881Z,7288
2018-12-05T12:28:55.038Z,7076
2018-12-05T12:30:07.291Z,6848
2018-12-05T12:31:19.581Z,6692
2018-12-05T12:32:34.763Z,6500
2018-12-05T12:33:44.040Z,6388
2018-12-05T12:34:56.251Z,6336
2018-12-05T12:36:08.405Z,6388
2018-12-05T12:37:20.691Z,6484
2018-12-05T12:38:32.852Z,6540
2018-12-05T12:39:45.168Z,6444
2018-12-05T12:40:57.354Z,6372
2018-12-05T12:42:09.563Z,6268
2018-12-05T12:43:21.710Z,6152
2018-12-05T12:44:33.927Z,6124
2018-12-05T12:45:46.248Z,6032
2018-12-05T12:46:58.450Z,5980
2018-12-05T12:48:10.764Z,5856
2018-12-05T12:49:22.804Z,5820
2018-12-05T12:50:35.024Z,5892
2018-12-05T12:51:47.315Z,6008
2018-12-05T12:52:59.552Z,6084
2018-12-05T12:54:11.710Z,6180
2018-12-05T12:55:23.901Z,6232
2018-12-05T12:56:38.796Z,6132
2018-12-05T12:57:48.435Z,6012
2018-12-05T12:59:00.569Z,5880
2018-12-05T13:01:25.099Z,6068
2018-12-05T13:02:37.258Z,6376
2018-12-05T13:03:49.552Z,6484
2018-12-05T13:05:03.386Z,6528
2018-12-05T13:06:14.022Z,6480
2018-12-05T13:07:26.236Z,6428
2018-12-05T13:08:38.432Z,6320
2018-12-05T13:09:51.042Z,6144
2018-12-05T13:12:15.086Z,5840
2018-12-05T13:13:27.368Z,5628
2018-12-05T13:14:39.526Z,5556
2018-12-05T13:15:51.823Z,5436
2018-12-05T13:17:03.989Z,5276
2018-12-05T13:18:16.217Z,5172
2018-12-05T13:19:28.446Z,5012
2018-12-05T13:20:40.834Z,4904
2018-12-05T13:21:52.963Z,4748
2018-12-05T13:23:05.221Z,4600
2018-12-05T13:24:17.324Z,4416
2018-12-05T13:25:29.549Z,4272
2018-12-05T13:26:41.789Z,4164
2018-12-05T13:27:54.070Z,4060
2018-12-05T13:29:06.319Z,3960
2018-12-05T13:30:18.433Z,3760
2018-12-05T13:31:30.725Z,3536
2018-12-05T13:32:42.866Z,3384
2018-12-05T13:33:55.085Z,3244
2018-12-05T13:35:07.416Z,3156
2018-12-05T13:36:19.604Z,3168
2018-12-05T13:37:31.837Z,3236
2018-12-05T13:38:43.998Z,3304
2018-12-05T13:39:56.288Z,3404
2018-12-05T13:41:08.441Z,3476
2018-12-05T13:42:20.717Z,3504
2018-12-05T13:43:32.990Z,3564
2018-12-05T13:44:45.090Z,3612
2018-12-05T13:45:57.308Z,3584
2018-12-05T13:47:09.523Z,3464
2018-12-05T13:48:21.841Z,3316
2018-12-05T13:49:33.979Z,3180
2018-12-05T13:50:46.274Z,3016
2018-12-05T13:51:58.508Z,2808
2018-12-05T13:53:10.788Z,2620
2018-12-05T13:54:22.970Z,2520
2018-12-05T13:55:35.199Z,2576
2018-12-05T13:56:47.450Z,2740
2018-12-05T13:57:59.671Z,2904
2018-12-05T13:59:12.022Z,2964
2018-12-05T14:00:24.072Z,2928
2018-12-05T14:01:36.305Z,2860
2018-12-05T14:02:48.638Z,2744
2018-12-05T14:04:00.861Z,2672
2018-12-05T14:05:12.995Z,2644
2018-12-05T14:06:25.248Z,2636
2018-12-05T14:07:37.533Z,2656
2018-12-05T14:08:49.657Z,2704
2018-12-05T14:10:01.972Z,2756
2018-12-05T14:11:14.098Z,2728
2018-12-05T14:12:26.315Z,2660
2018-12-05T14:13:38.631Z,2576
2018-12-05T14:14:50.754Z,2536
2018-12-05T14:16:03.056Z,2576
2018-12-05T14:17:15.256Z,2676
2018-12-05T14:18:27.415Z,2768
2018-12-05T14:19:39.703Z,2832
2018-12-05T14:20:51.997Z,2832
2018-12-05T14:22:04.133Z,2796
2018-12-05T14:23:16.389Z,2768
2018-12-05T14:24:28.566Z,2704
2018-12-05T14:25:40.872Z,2600
2018-12-05T14:26:52.965Z,2488
2018-12-05T14:28:05.264Z,2336
2018-12-05T14:29:17.497Z,2176
2018-12-05T14:30:29.743Z,2012
2018-12-05T14:31:41.898Z,1868
2018-12-05T14:32:54.202Z,1740
2018-12-05T14:34:06.395Z,1636
2018-12-05T14:35:19.979Z,1528
2018-12-05T14:36:30.836Z,1432
2018-12-05T14:37:42.988Z,1320
2018-12-05T14:38:55.206Z,1224
2018-12-05T14:40:07.440Z,1148
2018-12-05T14:41:19.725Z,1080
2018-12-05T14:42:31.992Z,1016
2018-12-05T14:43:44.106Z,960
2018-12-05T14:44:56.322Z,900
2018-12-05T14:46:08.642Z,848
2018-12-05T14:47:20.754Z,804
2018-12-05T14:48:33.074Z,764
2018-12-05T14:49:45.526Z,728
2018-12-05T14:50:57.502Z,688
2018-12-05T14:52:09.721Z,640
2018-12-05T14:53:21.887Z,600
2018-12-05T14:54:34.086Z,564
2018-12-05T14:55:46.298Z,536
2018-12-05T14:56:59.023Z,508
2018-12-05T14:58:10.975Z,476
2018-12-05T14:59:23.090Z,444
2018-12-05T15:00:35.691Z,408
2018-12-05T15:01:47.499Z,376
2018-12-05T15:02:59.714Z,344
2018-12-05T15:04:12.006Z,312
2018-12-05T15:05:24.185Z,292
2018-12-05T15:06:36.491Z,272
2018-12-05T15:07:48.677Z,256
2018-12-05T15:09:00.791Z,244
2018-12-05T15:10:13.027Z,224
2018-12-05T15:11:25.255Z,208
2018-12-05T15:12:37.549Z,196
2018-12-05T15:13:49.694Z,176
2018-12-05T15:15:01.903Z,164
2018-12-05T15:16:14.199Z,156
2018-12-05T15:17:26.344Z,148
2018-12-05T15:18:38.587Z,140
2018-12-05T15:19:50.858Z,136
2018-12-05T15:21:03.053Z,128
2018-12-05T15:22:15.195Z,120
2018-12-05T15:23:27.405Z,108
2018-12-05T15:24:39.621Z,100
2018-12-05T15:25:51.905Z,88
2018-12-05T15:27:04.123Z,80
2018-12-05T15:28:16.249Z,68
2018-12-05T15:29:28.473Z,60
2018-12-05T15:30:40.827Z,52
2018-12-05T15:31:52.895Z,44
2018-12-05T15:33:05.217Z,40
2018-12-05T15:35:29.602Z,28
2018-12-05T15:36:42.000Z,20
2018-12-05T15:37:54.089Z,20
2018-12-05T15:39:06.196Z,16
2018-12-05T15:40:18.656Z,16
2018-12-05T15:41:30.624Z,12
2018-12-05T15:42:42.853Z,12
2018-12-05T15:43:55.059Z,8
2018-12-05T15:45:07.271Z,8
2018-12-05T15:46:19.666Z,8
2018-12-05T15:47:31.836Z,4
2018-12-05T15:48:43.993Z,4
2018-12-05T15:49:56.227Z,0
2018-12-05T15:51:08.477Z,4
2018-12-05T15:52:20.577Z,4
2018-12-05T15:53:32.803Z,4
2018-12-05T15:54:45.115Z,0
2018-12-05T15:55:57.238Z,0
2018-12-05T15:57:09.536Z,0
2018-12-05T15:58:21.693Z,0
2018-12-05T15:59:34.585Z,0
2018-12-05T16:00:46.137Z,0
2018-12-05T16:01:58.467Z,0
2018-12-05T16:03:10.641Z,0
2018-12-05T16:04:22.888Z,0
2018-12-05T16:05:34.968Z,0
2018-12-05T16:06:47.185Z,0
2018-12-05T16:07:59.410Z,0
2018-12-05T16:09:11.789Z,0
2018-12-05T16:10:23.945Z,0
2018-12-05T16:11:36.159Z,0
2018-12-05T16:12:48.374Z,0
2018-12-05T16:14:00.609Z,0
2018-12-05T16:15:12.803Z,0
2018-12-05T16:16:25.031Z,0
2018-12-05T16:17:37.156Z,0
2018-12-05T16:18:49.445Z,0
2018-12-05T16:20:01.592Z,0
2018-12-05T16:21:13.793Z,0
2018-12-05T16:22:26.033Z,0
2018-12-05T16:23:38.204Z,0
2018-12-05T16:24:52.911Z,0
2018-12-05T16:26:02.720Z,0
2018-12-05T16:27:14.908Z,0
2018-12-05T16:28:27.047Z,0
2018-12-05T16:29:39.262Z,0
2018-12-05T16:30:51.479Z,0
2018-12-05T16:32:03.827Z,0
2018-12-05T16:33:15.917Z,0
2018-12-05T16:34:28.193Z,0
2018-12-05T16:35:40.341Z,0
2018-12-05T16:36:52.565Z,0
2018-12-05T16:38:04.789Z,0
2018-12-05T16:39:17.004Z,0
2018-12-05T16:40:29.311Z,0
2018-12-05T16:41:41.534Z,0
2018-12-05T16:42:53.665Z,0
2018-12-05T16:44:05.882Z,0
2018-12-05T16:45:20.449Z,0
2018-12-05T16:46:30.482Z,0
2018-12-05T16:47:42.569Z,0
2018-12-05T16:48:54.857Z,0
2018-12-05T16:50:06.999Z,0
2018-12-05T16:51:19.272Z,0
2018-12-05T16:52:31.429Z,0
2018-12-05T16:53:43.651Z,0
2018-12-05T16:54:55.867Z,0
2018-12-05T16:56:08.163Z,0